WARM SPRINGS (USACE) (WRS)

Elevation: 440' · RUSSIAN R basin · Operator: US Army Corps of Engineers

Provisional data, subject to change.
Query executed Thursday at 23:28:41   clock

Select a sensor type for a plot of data.
Note: Reservoir Flows are daily averages.

Earlier

Date RES ELE    STORAGE    RES CHG    TOC STO    ABV TOC    OUTFLOW    INFLOW    PPT INC    TEMP MN    TEMP MX    EVP PAN   
 FEET   AF   AF   AF   AF   CFS   CFS   INCHES   DEG F   DEG F   INCHES  
04/27/2016 450.75 244225 -52 245000 -775 76 59 0.06 6 20 0.13
04/28/2016 450.71 244119 -106 245000 -881 77 39 0.00 10 29 0.22
04/29/2016 450.68 244040 -79 245000 -960 77 53 0.00 12 26 0.21
04/30/2016 450.63 243909 -131 245000 -1091 81 31 0.00 9 28 0.21
05/01/2016 450.59 243804 -105 245000 -1196 82 46 0.02 12 32 0.22
05/02/2016 450.53 243646 -158 245000 -1354 81 16 0.00 7 27 0.19
05/03/2016 450.49 243541 -105 245000 -1459 84 41 0.00 9 26 0.12
05/04/2016 450.45 243436 -105 245000 -1564 87 45 0.00 12 24 0.15
05/05/2016 450.44 243409 -27 245000 -1591 86 78 0.00 12 21 0.08
05/06/2016 450.38 243252 -157 245000 -1748 82 12 0.00 11 20 0.13
05/07/2016 450.36 243199 -53 245000 -1801 81 57 0.08 12 15 0.03
05/08/2016 450.32 243094 -105 245000 -1906 81 35 0.04 13 21 0.10
05/09/2016 450.28 242989 -105 245000 -2011 81 40 0.04 10 24 0.16
05/10/2016 450.24 242884 -105 245000 -2116 81 44 0.04 9 28 0.21
05/11/2016 450.19 242753 -131 245000 -2247 80 30 0.00 10 28 0.20
05/12/2016 450.14 242622 -131 245000 -2378 80 30 0.00 10 27 0.21
05/13/2016 450.10 242517 -105 245000 -2483 80 42 0.00 10 25 0.19
05/14/2016 450.06 242413 -104 245000 -2587 80 39 0.00 12 25 0.15
05/15/2016 450.00 242255 -158 245000 -2745 80 18 0.02 13 29 0.23
05/16/2016 449.94 242098 -157 245000 -2902 80 19 0.02 14 33 0.24
05/17/2016 449.89 241968 -130 245000 -3032 81 35 0.03 15 37 0.25
05/18/2016 449.83 241811 -157 245000 -3189 85 25 0.00 14 38 0.26
05/19/2016 449.75 241601 -210 245000 -3399 84 -6 0.00 12 26 0.21
05/20/2016 449.68 241419 -182 245000 -3581 84 8 0.00 11 23 0.21
05/21/2016 449.61 241236 -183 245000 -3764 84 1 0.00 9 20 0.13
05/22/2016 449.55 241079 -157 245000 -3921 84 16 0.00 5 22 0.15
05/23/2016 449.50 240949 -130 245000 -4051 84 28 0.00 10 24 0.13
05/24/2016 449.40 240688 -261 245000 -4312 141 21 0.01 10 24 0.15
05/25/2016 449.30 240427 -261 245000 -4573 160 45 0.04 13 29 0.22
05/26/2016 -- -- -- -- -- -- -- -- -- -- --

Later | Latest

Warning! This data is preliminary and subject to revision.

Show WRS Map | Plot WRS Data | 1 Month WRS Data | Real-Time WRS Data | WRS Info